createdAt,value
2022-08-17T00:00:43.429Z,20.70
2022-08-17T00:05:54.549Z,20.90
2022-08-17T00:10:59.835Z,19.80
2022-08-17T00:16:10.322Z,20.20
2022-08-17T00:21:23.850Z,19.20
2022-08-17T00:26:43.578Z,21.40
2022-08-17T00:31:52.737Z,22.10
2022-08-17T00:36:57.372Z,22.50
2022-08-17T00:42:01.617Z,23.00
2022-08-17T00:47:05.960Z,22.10
2022-08-17T00:52:19.606Z,24.50
2022-08-17T00:57:59.261Z,21.60
2022-08-17T01:03:11.487Z,23.10
2022-08-17T01:08:22.841Z,22.80
2022-08-17T01:13:28.312Z,24.60
2022-08-17T01:18:34.754Z,23.40
2022-08-17T01:23:39.088Z,24.40
2022-08-17T01:28:54.373Z,25.30
2022-08-17T01:34:05.204Z,24.00
2022-08-17T01:39:30.808Z,24.80
2022-08-17T01:44:38.919Z,26.20
2022-08-17T01:55:02.423Z,24.40
2022-08-17T02:00:12.552Z,24.90
2022-08-17T02:05:17.699Z,24.90
2022-08-17T02:10:24.968Z,23.90
2022-08-17T02:15:38.721Z,25.60
2022-08-17T02:20:43.619Z,24.50
2022-08-17T02:25:49.276Z,25.00
2022-08-17T02:31:00.745Z,26.30
2022-08-17T02:36:11.454Z,25.70
2022-08-17T02:41:15.672Z,24.40
2022-08-17T02:46:20.812Z,27.30
2022-08-17T02:51:28.441Z,23.90
2022-08-17T02:56:32.688Z,28.90
2022-08-17T03:01:37.050Z,25.80
2022-08-17T03:06:41.070Z,25.00
2022-08-17T03:11:45.311Z,27.40
2022-08-17T03:16:50.477Z,28.10
2022-08-17T03:21:55.398Z,23.90
2022-08-17T03:26:59.763Z,27.20
2022-08-17T03:32:17.433Z,29.00
2022-08-17T03:37:21.552Z,31.30
2022-08-17T03:42:32.597Z,30.60
2022-08-17T03:47:56.130Z,30.50
2022-08-17T03:53:22.150Z,27.90
2022-08-17T03:58:26.287Z,30.10
2022-08-17T04:03:30.329Z,31.20
2022-08-17T04:08:36.232Z,29.50
2022-08-17T04:13:40.540Z,29.10
2022-08-17T04:18:44.364Z,25.20
2022-08-17T04:23:49.013Z,28.50
2022-08-17T04:28:53.259Z,24.10
2022-08-17T04:33:57.392Z,29.50
2022-08-17T04:39:02.325Z,32.40
2022-08-17T04:44:06.491Z,30.00
2022-08-17T04:49:12.653Z,31.20
2022-08-17T04:54:23.141Z,32.40
2022-08-17T04:59:27.274Z,33.50
2022-08-17T05:04:35.025Z,32.40
2022-08-17T05:14:43.576Z,34.20
2022-08-17T05:19:51.836Z,33.90
2022-08-17T05:24:56.247Z,38.00
2022-08-17T05:30:02.038Z,29.60
2022-08-17T05:35:07.398Z,30.10
2022-08-17T05:40:12.350Z,34.70
2022-08-17T05:45:32.100Z,28.50
2022-08-17T05:51:31.656Z,33.30
2022-08-17T05:56:44.468Z,33.70
2022-08-17T06:02:04.269Z,33.50
2022-08-17T06:07:39.515Z,33.90
2022-08-17T06:13:08.416Z,29.50
2022-08-17T06:18:18.537Z,32.70
2022-08-17T06:23:44.295Z,32.70
2022-08-17T06:28:56.325Z,30.60
2022-08-17T06:34:04.379Z,29.90
2022-08-17T06:40:11.378Z,29.60
2022-08-17T06:45:29.370Z,26.70
2022-08-17T06:51:00.726Z,29.40
2022-08-17T06:56:22.771Z,25.70
2022-08-17T07:01:35.752Z,28.00
2022-08-17T07:06:57.652Z,27.70
2022-08-17T07:12:15.709Z,25.20
2022-08-17T07:17:46.700Z,26.20
2022-08-17T07:23:05.114Z,28.40
2022-08-17T07:28:09.499Z,25.60
2022-08-17T07:33:23.310Z,23.80
2022-08-17T07:38:34.702Z,25.30
2022-08-17T07:43:41.111Z,24.70
2022-08-17T07:48:55.563Z,24.40
2022-08-17T07:54:24.070Z,24.40
2022-08-17T08:00:12.666Z,21.90
2022-08-17T08:05:30.828Z,23.60
2022-08-17T08:11:34.367Z,22.00
2022-08-17T08:16:38.394Z,21.10
2022-08-17T08:22:03.725Z,20.10
2022-08-17T08:27:19.726Z,19.20
2022-08-17T08:32:57.568Z,15.90
2022-08-17T08:38:24.400Z,15.70
2022-08-17T08:43:55.534Z,15.10
2022-08-17T08:49:45.034Z,15.80
2022-08-17T08:55:04.376Z,14.80
2022-08-17T09:00:18.189Z,14.10
2022-08-17T09:06:37.329Z,16.20
2022-08-17T09:12:02.465Z,14.50
2022-08-17T09:18:03.528Z,12.70
2022-08-17T09:23:34.594Z,15.00
2022-08-17T09:28:43.999Z,10.80
2022-08-17T09:33:51.760Z,10.90
2022-08-17T09:39:12.753Z,11.00
2022-08-17T09:44:53.307Z,11.20
2022-08-17T09:51:04.286Z,11.60
2022-08-17T09:56:07.446Z,9.00
2022-08-17T10:02:00.277Z,9.50
2022-08-17T10:07:34.450Z,8.20
2022-08-17T10:12:49.586Z,9.10
2022-08-17T10:18:38.204Z,7.80
2022-08-17T10:24:04.785Z,6.20
2022-08-17T10:35:02.661Z,6.60
2022-08-17T10:40:28.487Z,7.40
2022-08-17T10:46:31.211Z,6.70
2022-08-17T10:51:41.115Z,5.60
2022-08-17T10:56:51.843Z,7.10
2022-08-17T11:02:19.830Z,6.40
2022-08-17T11:08:02.338Z,7.40
2022-08-17T11:13:41.509Z,7.20
2022-08-17T11:19:10.779Z,7.60
2022-08-17T11:24:19.930Z,6.60
2022-08-17T11:29:49.443Z,8.10
2022-08-17T11:35:21.341Z,8.00
2022-08-17T11:41:20.504Z,6.70
2022-08-17T11:47:19.595Z,7.00
2022-08-17T11:52:48.602Z,7.20
2022-08-17T11:58:16.794Z,7.80
2022-08-17T12:03:32.869Z,6.80
2022-08-17T12:13:55.846Z,6.20
2022-08-17T12:19:03.820Z,7.30
2022-08-17T12:25:01.831Z,6.90
2022-08-17T12:30:16.657Z,6.30
2022-08-17T12:35:39.560Z,6.80
2022-08-17T12:40:58.141Z,6.00
2022-08-17T12:46:15.270Z,6.80
2022-08-17T12:51:19.777Z,7.20
2022-08-17T12:56:23.916Z,6.50
2022-08-17T13:01:28.187Z,5.30
2022-08-17T13:06:37.085Z,6.20
2022-08-17T13:11:55.607Z,6.60
2022-08-17T13:17:07.365Z,6.20
2022-08-17T13:22:15.394Z,6.50
2022-08-17T13:27:23.614Z,6.50
2022-08-17T13:32:45.106Z,5.80
2022-08-17T13:38:38.322Z,6.40
2022-08-17T13:43:48.887Z,6.10
2022-08-17T13:49:10.334Z,6.50
2022-08-17T13:54:34.801Z,5.80
2022-08-17T13:59:52.993Z,5.50
2022-08-17T14:05:01.327Z,6.10
2022-08-17T14:10:15.587Z,5.90
2022-08-17T14:15:25.013Z,5.40
2022-08-17T14:20:50.591Z,5.20
2022-08-17T14:25:55.042Z,5.20
2022-08-17T14:30:59.353Z,5.40
2022-08-17T14:36:05.190Z,5.00
2022-08-17T14:41:09.781Z,5.40
2022-08-17T14:46:14.391Z,6.30
2022-08-17T14:51:23.826Z,5.70
2022-08-17T14:56:28.221Z,5.40
2022-08-17T15:01:39.605Z,5.30
2022-08-17T15:06:48.968Z,5.90
2022-08-17T15:11:54.461Z,5.80
2022-08-17T15:17:00.225Z,5.90
2022-08-17T15:22:04.655Z,6.10
2022-08-17T15:27:08.786Z,6.60
2022-08-17T15:32:33.096Z,6.30
2022-08-17T15:37:39.654Z,7.30
2022-08-17T15:42:43.717Z,6.80
2022-08-17T15:47:47.996Z,7.50
2022-08-17T15:53:01.647Z,7.20
2022-08-17T15:58:06.173Z,7.50
2022-08-17T16:03:45.351Z,7.70
2022-08-17T16:08:36.232Z,7.20
2022-08-17T16:13:42.248Z,6.70
2022-08-17T16:18:59.470Z,6.70
2022-08-17T16:24:13.226Z,7.60
2022-08-17T16:29:19.070Z,6.70
2022-08-17T16:34:24.025Z,8.00
2022-08-17T16:39:30.062Z,7.80
2022-08-17T16:44:34.339Z,7.80
2022-08-17T16:49:39.712Z,7.60
2022-08-17T16:54:45.960Z,8.90
2022-08-17T16:59:54.398Z,9.10
2022-08-17T17:05:59.452Z,8.50
2022-08-17T17:11:46.570Z,8.00
2022-08-17T17:17:19.793Z,8.50
2022-08-17T17:23:03.807Z,7.90
2022-08-17T17:28:36.809Z,8.60
2022-08-17T17:34:00.913Z,7.70
2022-08-17T17:39:37.091Z,8.20
2022-08-17T17:45:23.778Z,8.40
2022-08-17T17:50:41.314Z,8.60
2022-08-17T17:56:19.656Z,9.40
2022-08-17T18:02:53.632Z,8.50
2022-08-17T18:08:39.402Z,8.80
2022-08-17T18:14:26.518Z,8.60
2022-08-17T18:19:33.135Z,9.30
2022-08-17T18:24:41.633Z,9.70
2022-08-17T18:29:48.483Z,9.90
2022-08-17T18:35:28.380Z,9.40
2022-08-17T18:40:38.397Z,9.10
2022-08-17T18:45:58.568Z,9.30
2022-08-17T18:51:40.921Z,8.30
2022-08-17T18:57:00.268Z,10.20
2022-08-17T19:07:51.995Z,9.80
2022-08-17T19:13:12.697Z,9.80
2022-08-17T19:18:41.219Z,9.60
2022-08-17T19:24:01.538Z,13.10
2022-08-17T19:29:19.526Z,11.70
2022-08-17T19:34:34.458Z,10.90
2022-08-17T19:40:48.926Z,11.60
2022-08-17T19:46:07.872Z,13.00
2022-08-17T19:51:36.786Z,26.50
2022-08-17T19:57:12.539Z,30.60
2022-08-17T20:02:29.072Z,20.90
2022-08-17T20:08:12.602Z,18.50
2022-08-17T20:14:00.743Z,15.20
2022-08-17T20:19:35.432Z,12.40
2022-08-17T20:25:30.093Z,11.60
2022-08-17T20:30:43.051Z,10.40
2022-08-17T20:36:01.868Z,11.80
2022-08-17T20:41:10.810Z,12.50
2022-08-17T20:46:29.992Z,13.40
2022-08-17T20:52:01.448Z,14.10
2022-08-17T20:57:14.428Z,13.60
2022-08-17T21:02:24.791Z,14.10
2022-08-17T21:07:55.335Z,14.80
2022-08-17T21:13:15.672Z,13.40
2022-08-17T21:19:06.918Z,13.10
2022-08-17T21:24:33.166Z,15.10
2022-08-17T21:30:30.256Z,15.00
2022-08-17T21:36:16.633Z,16.10
2022-08-17T21:41:34.458Z,15.10
2022-08-17T21:46:46.469Z,14.70
2022-08-17T21:51:56.975Z,15.50
2022-08-17T21:57:06.404Z,16.10
2022-08-17T22:02:24.508Z,16.10
2022-08-17T22:08:00.403Z,16.20
2022-08-17T22:13:29.707Z,15.00
2022-08-17T22:18:34.901Z,16.30
2022-08-17T22:24:02.049Z,14.60
2022-08-17T22:29:57.475Z,15.80
2022-08-17T22:35:35.772Z,15.80
2022-08-17T22:40:40.627Z,15.30
2022-08-17T22:45:51.993Z,15.60
2022-08-17T22:51:14.714Z,16.50
2022-08-17T22:56:43.396Z,16.30
2022-08-17T23:02:16.343Z,15.90
2022-08-17T23:07:23.689Z,16.20
2022-08-17T23:12:28.240Z,14.30
2022-08-17T23:17:48.113Z,15.00
2022-08-17T23:22:54.289Z,16.20
2022-08-17T23:28:01.992Z,16.70
2022-08-17T23:33:12.577Z,16.90
2022-08-17T23:38:16.870Z,17.20
2022-08-17T23:43:24.212Z,16.90
2022-08-17T23:48:35.919Z,17.90
2022-08-17T23:53:50.895Z,18.40
2022-08-17T23:58:56.956Z,17.40
